Time;durP1;ratioP1;P1;durP2;ratioP2;P2;SDS_P1;SDS_P2;PMS_P1;PMS_P2;Temp;Humidity;BMP_temperature;BMP_pressure;BME280_temperature;BME280_humidity;BME280_pressure;Samples;Min_cycle;Max_cycle;Signal;HPM_P1;HPM_P2
2023/12/29 00:00:37;;;;;;;29.60;4.43;;;;;;;7.85;100.00;99563.97;6092348;23;20022;-93
2023/12/29 00:03:02;;;;;;;28.23;4.68;;;;;;;7.90;100.00;99551.66;6091921;23;20342;-91
2023/12/29 00:05:28;;;;;;;29.73;3.97;;;;;;;7.93;100.00;99556.66;6091439;23;20006;-92
2023/12/29 00:07:53;;;;;;;29.02;6.75;;;;;;;7.89;100.00;99547.47;6092008;23;20006;-91
2023/12/29 00:10:19;;;;;;;32.70;4.60;;;;;;;7.88;100.00;99563.81;6091785;23;20002;-91
2023/12/29 00:12:44;;;;;;;27.42;3.97;;;;;;;7.89;100.00;99566.28;6091793;23;20057;-91
2023/12/29 00:15:10;;;;;;;23.20;5.28;;;;;;;7.98;100.00;99553.81;6091260;23;20056;-91
2023/12/29 00:17:40;;;;;;;23.83;5.10;;;;;;;7.85;100.00;99563.97;6091541;23;20022;-91
2023/12/29 00:20:08;;;;;;;26.58;5.03;;;;;;;8.01;100.00;99559.56;6091706;23;20009;-92
2023/12/29 00:22:34;;;;;;;27.38;4.43;;;;;;;7.97;100.00;99554.69;6091591;23;20007;-92
2023/12/29 00:24:59;;;;;;;23.65;3.30;;;;;;;7.89;100.00;99565.44;6091569;23;20025;-92
2023/12/29 00:27:24;;;;;;;23.08;2.58;;;;;;;7.85;100.00;99574.25;6090254;23;20003;-91
2023/12/29 00:29:50;;;;;;;22.67;3.25;;;;;;;7.84;100.00;99552.88;6091643;23;20012;-91
2023/12/29 00:32:15;;;;;;;26.77;3.75;;;;;;;7.91;100.00;99571.31;6091459;23;20321;-91
2023/12/29 00:34:41;;;;;;;34.03;4.72;;;;;;;7.96;100.00;99569.31;6091733;23;20013;-91
2023/12/29 00:37:06;;;;;;;26.30;4.10;;;;;;;7.93;100.00;99561.78;6091771;23;20091;-91
2023/12/29 00:39:38;;;;;;;25.77;3.47;;;;;;;7.92;100.00;99560.97;6090065;23;20002;-91
2023/12/29 00:42:04;;;;;;;30.23;4.25;;;;;;;7.94;100.00;99558.28;6091520;23;19998;-91
2023/12/29 00:44:29;;;;;;;29.55;4.95;;;;;;;7.92;100.00;99544.69;6091434;23;20002;-92
2023/12/29 00:46:55;;;;;;;31.73;5.45;;;;;;;7.98;100.00;99549.47;6091470;23;20016;-91
2023/12/29 00:49:20;;;;;;;39.78;5.97;;;;;;;8.00;100.00;99551.94;6089977;23;20453;-91
2023/12/29 00:51:47;;;;;;;34.78;4.07;;;;;;;8.01;100.00;99551.84;6091356;23;20009;-91
2023/12/29 00:54:12;;;;;;;26.02;4.13;;;;;;;7.96;100.00;99548.75;6091253;23;20002;-91
2023/12/29 00:56:38;;;;;;;29.95;4.10;;;;;;;8.02;100.00;99538.09;6091537;23;20029;-90
2023/12/29 00:59:03;;;;;;;37.38;4.80;;;;;;;8.07;100.00;99541.22;6089672;23;19998;-91
2023/12/29 01:01:34;;;;;;;29.10;4.28;;;;;;;8.08;100.00;99542.03;6091613;23;20056;-91
2023/12/29 01:03:59;;;;;;;40.22;4.18;;;;;;;7.94;100.00;99545.44;6089992;23;20010;-91
2023/12/29 01:06:24;;;;;;;27.73;4.95;;;;;;;7.96;100.00;99541.03;6089572;23;19998;-91
2023/12/29 01:08:50;;;;;;;25.95;4.07;;;;;;;7.93;100.00;99536.09;6091252;23;20006;-91
2023/12/29 01:11:15;;;;;;;28.02;4.68;;;;;;;7.99;100.00;99522.03;6091241;23;20009;-90
2023/12/29 01:13:40;;;;;;;22.63;2.95;;;;;;;7.98;100.00;99533.25;6091653;23;20013;-91
2023/12/29 01:16:06;;;;;;;29.13;4.90;;;;;;;7.91;100.00;99532.78;6090980;23;20528;-91
2023/12/29 01:18:32;;;;;;;27.98;3.65;;;;;;;7.94;100.00;99522.31;6091128;23;20006;-91
2023/12/29 01:20:57;;;;;;;32.10;6.10;;;;;;;7.96;100.00;99541.03;6091356;23;20440;-91
2023/12/29 01:23:22;;;;;;;35.50;8.40;;;;;;;8.02;100.00;99530.41;6091355;23;20048;-91
2023/12/29 01:25:48;;;;;;;27.33;3.97;;;;;;;7.95;100.00;99531.69;6090995;23;20014;-91
2023/12/29 01:28:13;;;;;;;32.78;4.55;;;;;;;8.07;100.00;99518.09;6091164;23;20059;-92
2023/12/29 01:30:38;;;;;;;29.73;4.40;;;;;;;8.00;100.00;99511.66;6091330;23;20437;-91
2023/12/29 01:33:04;;;;;;;40.63;6.32;;;;;;;7.98;100.00;99517.81;6091152;23;20003;-91
2023/12/29 01:35:29;;;;;;;29.38;4.00;;;;;;;7.97;100.00;99522.13;6090958;23;19999;-91
2023/12/29 01:37:57;;;;;;;26.00;3.83;;;;;;;7.94;100.00;99514.59;6091508;23;20002;-91
2023/12/29 01:40:23;;;;;;;37.70;5.93;;;;;;;8.03;100.00;99505.50;6089661;23;20013;-91
2023/12/29 01:42:48;;;;;;;25.77;4.43;;;;;;;7.98;100.00;99505.78;6089558;23;20004;-91
2023/12/29 01:45:25;;;;;;;38.00;4.63;;;;;;;8.11;100.00;99498.16;6090877;23;20021;-91
2023/12/29 01:47:52;;;;;;;23.65;3.50;;;;;;;7.98;100.00;99517.81;6090897;23;20059;-92
2023/12/29 01:50:19;;;;;;;27.73;6.82;;;;;;;7.92;100.00;99525.00;6090819;23;20002;-91
2023/12/29 01:52:46;;;;;;;39.17;3.90;;;;;;;7.91;100.00;99517.38;6090978;23;20027;-92
2023/12/29 01:55:16;;;;;;;33.72;5.13;;;;;;;7.95;100.00;99513.69;6089247;23;20006;-91
2023/12/29 01:57:42;;;;;;;25.55;3.75;;;;;;;8.00;100.00;99511.66;6090809;23;20013;-91
2023/12/29 02:00:09;;;;;;;28.27;4.45;;;;;;;8.03;100.00;99523.50;6090893;23;19995;-91
2023/12/29 02:02:34;;;;;;;22.80;4.97;;;;;;;8.06;100.00;99510.47;6091067;23;20007;-91
2023/12/29 02:05:00;;;;;;;23.75;4.03;;;;;;;8.07;100.00;99507.81;6090953;23;20444;-91
2023/12/29 02:07:30;;;;;;;23.45;3.90;;;;;;;8.00;100.00;99511.66;6090851;23;20100;-91
2023/12/29 02:09:57;;;;;;;25.13;4.15;;;;;;;8.03;100.00;99519.19;6090951;23;20088;-91
2023/12/29 02:12:22;;;;;;;20.77;3.10;;;;;;;8.13;100.00;99522.84;6089085;23;20319;-91
2023/12/29 02:14:48;;;;;;;21.88;3.35;;;;;;;8.12;100.00;99515.19;6089266;23;20064;-91
2023/12/29 02:17:27;;;;;;;23.27;3.35;;;;;;;8.12;100.00;99516.06;6091971;23;19998;-91
2023/12/29 02:19:53;;;;;;;25.65;3.80;;;;;;;8.14;100.00;99514.22;6092273;23;20006;-92
2023/12/29 02:22:19;;;;;;;13.63;2.65;;;;;;;8.15;100.00;99515.84;6092040;23;20442;-91
2023/12/29 02:24:48;;;;;;;18.92;2.30;;;;;;;8.10;100.00;99517.88;6092015;23;20002;-91
2023/12/29 02:27:19;;;;;;;19.55;2.35;;;;;;;8.22;100.00;99533.44;6092070;23;20011;-91
2023/12/29 02:29:51;;;;;;;9.98;1.67;;;;;;;8.15;100.00;99533.84;6092798;23;20325;-91
2023/12/29 02:32:18;;;;;;;;;;;;;;;8.22;100.00;99541.16;6091252;23;20389;-90
2023/12/29 02:34:47;;;;;;;13.00;2.00;;;;;;;8.25;100.00;99536.66;6092240;23;19910;-91
2023/12/29 02:37:13;;;;;;;20.58;3.00;;;;;;;8.18;100.00;99534.59;6092361;23;20006;-91
2023/12/29 02:39:38;;;;;;;25.25;2.50;;;;;;;8.15;100.00;99530.47;6092322;23;20130;-91
2023/12/29 02:42:04;;;;;;;11.10;1.60;;;;;;;8.23;100.00;99532.53;6092323;23;20039;-91
2023/12/29 02:44:29;;;;;;;16.58;2.05;;;;;;;8.13;100.00;99533.13;6092174;23;20010;-91
2023/12/29 02:46:55;;;;;;;11.38;2.40;;;;;;;8.12;100.00;99526.34;6092112;23;20414;-90
2023/12/29 02:49:20;;;;;;;26.00;2.80;;;;;;;8.12;100.00;99543.47;6092486;23;20421;-91
2023/12/29 02:51:47;;;;;;;17.48;2.30;;;;;;;8.13;100.00;99527.97;6092338;23;20439;-91
2023/12/29 02:54:13;;;;;;;7.32;1.42;;;;;;;8.14;100.00;99528.78;6091905;23;20007;-91
2023/12/29 02:56:38;;;;;;;10.50;1.63;;;;;;;8.11;100.00;99509.25;6092358;23;20013;-91
2023/12/29 02:59:04;;;;;;;12.52;2.38;;;;;;;8.04;100.00;99530.28;6092690;23;20325;-91
2023/12/29 03:01:29;;;;;;;11.98;2.20;;;;;;;8.05;100.00;99508.81;6092027;23;20002;-91
2023/12/29 03:03:55;;;;;;;13.85;1.50;;;;;;;8.02;100.00;99507.28;6092040;23;20002;-90
2023/12/29 03:06:20;;;;;;;14.63;1.83;;;;;;;8.02;100.00;99511.56;6092002;23;20014;-91
2023/12/29 03:08:45;;;;;;;19.88;5.00;;;;;;;8.01;100.00;99504.78;6092564;23;20079;-92
2023/12/29 03:11:11;;;;;;;14.02;2.33;;;;;;;8.01;100.00;99513.31;6091937;23;20436;-91
2023/12/29 03:13:36;;;;;;;16.60;2.25;;;;;;;8.02;100.00;99517.53;6092364;23;20006;-90
2023/12/29 03:16:01;;;;;;;15.68;3.10;;;;;;;8.12;100.00;99513.47;6090903;23;20026;-91
2023/12/29 03:18:27;;;;;;;23.02;3.83;;;;;;;8.20;100.00;99507.84;6092019;23;20012;-91
2023/12/29 03:20:52;;;;;;;20.33;2.45;;;;;;;8.13;100.00;99502.28;6091911;23;20002;-90
2023/12/29 03:23:17;;;;;;;20.00;2.90;;;;;;;8.12;100.00;99495.50;6090479;23;19998;-91
2023/12/29 03:25:43;;;;;;;19.80;1.92;;;;;;;8.15;100.00;99495.28;6090400;23;20079;-90
2023/12/29 03:28:08;;;;;;;22.08;2.80;;;;;;;8.11;100.00;99490.44;6089998;23;20013;-91
2023/12/29 03:30:33;;;;;;;18.45;2.42;;;;;;;8.12;100.00;99492.06;6090500;23;20077;-91
2023/12/29 03:32:59;;;;;;;28.92;4.10;;;;;;;8.10;100.00;99494.75;6092142;23;20060;-91
2023/12/29 03:35:24;;;;;;;17.10;2.78;;;;;;;8.09;100.00;99484.56;6090258;23;20006;-91
2023/12/29 03:37:49;;;;;;;19.92;3.45;;;;;;;8.19;100.00;99501.06;6092069;23;20426;-91
2023/12/29 03:40:15;;;;;;;20.45;2.70;;;;;;;8.29;100.00;99496.16;6090521;23;20010;-92
2023/12/29 03:42:41;;;;;;;19.98;3.50;;;;;;;8.22;100.00;99482.03;6092060;23;20010;-91
2023/12/29 03:45:07;;;;;;;22.67;2.80;;;;;;;8.35;100.00;99480.34;6091924;23;20076;-91
2023/12/29 03:47:32;;;;;;;19.48;2.15;;;;;;;8.28;100.00;99473.97;6091889;23;20448;-91
2023/12/29 03:49:58;;;;;;;18.83;2.28;;;;;;;8.26;100.00;99480.94;6092063;23;20422;-91
2023/12/29 03:52:23;;;;;;;19.08;2.78;;;;;;;8.20;100.00;99481.34;6090472;23;20461;-91
2023/12/29 03:54:48;;;;;;;17.30;2.30;;;;;;;8.28;100.00;99484.25;6090169;23;20081;-90
2023/12/29 03:57:14;;;;;;;19.65;3.13;;;;;;;8.19;100.00;99482.25;6091850;23;20010;-91
2023/12/29 03:59:39;;;;;;;20.02;3.47;;;;;;;8.21;100.00;99486.38;6092040;23;20010;-91
2023/12/29 04:02:04;;;;;;;17.00;2.17;;;;;;;8.14;100.00;99488.50;6092066;23;20006;-91
2023/12/29 04:04:30;;;;;;;19.27;2.58;;;;;;;8.19;100.00;99508.75;6091755;23;20084;-91
2023/12/29 04:06:55;;;;;;;9.77;1.90;;;;;;;8.15;100.00;99505.56;6091894;23;20022;-90
2023/12/29 04:09:21;;;;;;;16.13;2.05;;;;;;;8.14;100.00;99493.66;6092363;23;20076;-91
2023/12/29 04:11:46;;;;;;;14.38;2.50;;;;;;;8.27;100.00;99503.16;6091865;23;20003;-91
2023/12/29 04:14:12;;;;;;;14.52;1.77;;;;;;;8.25;100.00;99502.44;6091835;23;20011;-90
2023/12/29 04:16:38;;;;;;;11.25;1.73;;;;;;;8.15;100.00;99500.44;6091934;23;20029;-91
2023/12/29 04:19:04;;;;;;;15.63;2.63;;;;;;;8.12;100.00;99498.06;6091919;23;20054;-91
2023/12/29 04:21:29;;;;;;;14.93;3.10;;;;;;;8.13;100.00;99492.00;6091773;23;20044;-90
2023/12/29 04:23:54;;;;;;;24.02;2.72;;;;;;;8.06;100.00;99489.91;6092323;23;20080;-90
2023/12/29 04:26:20;;;;;;;17.73;3.55;;;;;;;8.08;100.00;99501.72;6090412;23;20452;-91
2023/12/29 04:28:45;;;;;;;18.67;3.03;;;;;;;7.99;100.00;99494.59;6091844;23;20338;-91
2023/12/29 04:31:10;;;;;;;15.45;2.22;;;;;;;7.95;100.00;99488.00;6091958;23;20038;-90
2023/12/29 04:33:36;;;;;;;19.90;2.42;;;;;;;7.94;100.00;99496.63;6090086;23;20006;-90
2023/12/29 04:36:01;;;;;;;18.85;2.58;;;;;;;7.91;100.00;99497.63;6091590;23;20089;-90
2023/12/29 04:38:26;;;;;;;25.27;2.65;;;;;;;7.87;100.00;99510.75;6091481;23;20329;-90
2023/12/29 04:40:52;;;;;;;20.52;2.85;;;;;;;7.82;100.00;99507.66;6091863;23;20086;-91
2023/12/29 04:43:17;;;;;;;14.38;2.85;;;;;;;7.83;100.00;99517.84;6091959;23;20002;-90
2023/12/29 04:45:42;;;;;;;13.80;2.65;;;;;;;7.88;100.00;99520.13;6091982;23;20443;-91
2023/12/29 04:48:08;;;;;;;16.00;2.20;;;;;;;7.87;100.00;99518.47;6091550;23;20376;-91
2023/12/29 04:50:33;;;;;;;19.13;2.53;;;;;;;8.00;100.00;99514.25;6091520;23;20007;-90
2023/12/29 04:52:59;;;;;;;16.63;2.28;;;;;;;8.09;100.00;99511.06;6090041;23;20036;-91
2023/12/29 04:55:24;;;;;;;18.83;2.40;;;;;;;8.12;100.00;99526.34;6091385;23;20010;-91
2023/12/29 04:57:49;;;;;;;8.50;1.48;;;;;;;8.10;100.00;99528.16;6091428;23;19999;-91
2023/12/29 05:00:15;;;;;;;18.08;1.80;;;;;;;8.08;100.00;99542.03;6091429;23;20014;-90
2023/12/29 05:02:40;;;;;;;11.93;1.85;;;;;;;8.14;100.00;99533.94;6091583;23;20117;-91
2023/12/29 05:05:06;;;;;;;16.50;2.70;;;;;;;8.13;100.00;99534.88;6091202;23;20005;-91
2023/12/29 05:07:31;;;;;;;13.15;1.90;;;;;;;8.17;100.00;99545.75;6091312;23;20007;-91
2023/12/29 05:09:56;;;;;;;14.25;2.33;;;;;;;8.13;100.00;99538.25;6091334;23;20002;-91
2023/12/29 05:12:22;;;;;;;13.40;2.03;;;;;;;8.03;100.00;99539.75;6090951;23;20006;-92
2023/12/29 05:14:47;;;;;;;15.30;1.90;;;;;;;8.00;100.00;99542.50;6091244;23;20089;-91
2023/12/29 05:17:12;;;;;;;16.90;2.17;;;;;;;7.95;100.00;99539.41;6091347;23;20014;-91
2023/12/29 05:19:38;;;;;;;10.55;1.63;;;;;;;7.86;100.00;99539.94;6091102;23;20049;-90
2023/12/29 05:22:03;;;;;;;10.45;1.73;;;;;;;7.91;100.00;99545.63;6091208;23;20003;-91
2023/12/29 05:24:29;;;;;;;15.13;2.10;;;;;;;7.97;100.00;99534.16;6091106;23;20010;-91
2023/12/29 05:26:54;;;;;;;14.90;2.50;;;;;;;7.92;100.00;99539.56;6091258;23;20424;-91
2023/12/29 05:29:19;;;;;;;14.70;1.85;;;;;;;7.89;100.00;99535.44;6091243;23;20002;-91
2023/12/29 05:31:45;;;;;;;11.60;1.63;;;;;;;7.91;100.00;99535.34;6090986;23;20022;-90
2023/12/29 05:34:10;;;;;;;7.15;1.27;;;;;;;7.82;100.00;99548.75;6091244;23;20460;-90
2023/12/29 05:36:36;;;;;;;23.67;2.50;;;;;;;7.80;100.00;99545.44;6091120;23;20006;-91
2023/12/29 05:39:02;;;;;;;15.18;2.00;;;;;;;7.70;100.00;99548.56;6091232;23;20085;-91
2023/12/29 05:41:27;;;;;;;11.82;1.60;;;;;;;7.82;100.00;99553.88;6091156;23;20030;-90
2023/12/29 05:43:53;;;;;;;16.42;1.75;;;;;;;7.74;100.00;99535.56;6091043;23;20338;-91
2023/12/29 05:46:18;;;;;;;17.08;1.85;;;;;;;7.68;100.00;99526.44;6090981;23;20006;-91
2023/12/29 05:48:43;;;;;;;18.08;2.33;;;;;;;7.66;100.00;99539.41;6089603;23;20457;-91
2023/12/29 05:51:13;;;;;;;20.20;2.88;;;;;;;7.70;100.00;99548.56;6091753;23;20136;-91
2023/12/29 05:53:43;;;;;;;18.48;2.15;;;;;;;7.81;100.00;99539.41;6090327;23;20006;-90
2023/12/29 05:56:12;;;;;;;20.20;2.83;;;;;;;7.75;100.00;99547.47;6091977;23;20014;-91
2023/12/29 05:58:37;;;;;;;17.65;1.77;;;;;;;7.79;100.00;99547.19;6090375;23;20006;-89
2023/12/29 06:01:03;;;;;;;14.85;2.20;;;;;;;7.74;100.00;99544.06;6092162;23;20071;-91
2023/12/29 06:03:28;;;;;;;15.30;1.92;;;;;;;7.73;100.00;99545.00;6092408;23;20003;-91
2023/12/29 06:05:54;;;;;;;16.80;2.30;;;;;;;7.90;100.00;99543.97;6092318;23;20003;-92
2023/12/29 06:08:19;;;;;;;17.20;2.50;;;;;;;7.84;100.00;99549.50;6092196;23;20007;-90
2023/12/29 06:10:45;;;;;;;14.13;1.73;;;;;;;7.83;100.00;99545.28;6090882;23;20007;-90
2023/12/29 06:13:10;;;;;;;22.35;3.00;;;;;;;7.87;100.00;99539.84;6090708;23;20356;-91
2023/12/29 06:15:36;;;;;;;16.75;2.58;;;;;;;7.87;100.00;99539.03;6091977;23;20011;-90
2023/12/29 06:18:02;;;;;;;15.25;2.15;;;;;;;7.86;100.00;99540.78;6090890;23;20010;-91
2023/12/29 06:20:27;;;;;;;17.20;2.30;;;;;;;7.89;100.00;99540.56;6092192;23;20033;-91
2023/12/29 06:22:53;;;;;;;16.58;2.10;;;;;;;7.91;100.00;99550.78;6092179;23;20029;-91
2023/12/29 06:25:18;;;;;;;22.02;2.08;;;;;;;7.93;100.00;99556.66;6092098;23;19994;-91
2023/12/29 06:27:43;;;;;;;16.83;1.75;;;;;;;7.96;100.00;99553.88;6092011;23;20013;-90
2023/12/29 06:30:10;;;;;;;13.18;1.60;;;;;;;8.06;100.00;99562.69;6090754;23;20007;-90
2023/12/29 06:32:36;;;;;;;11.73;2.35;;;;;;;8.01;100.00;99553.59;6092212;23;20325;-91
2023/12/29 06:35:02;;;;;;;11.18;1.48;;;;;;;7.99;100.00;99561.41;6090546;23;20105;-90
2023/12/29 06:37:28;;;;;;;14.65;2.13;;;;;;;8.00;100.00;99562.22;6092350;23;20013;-91
2023/12/29 06:39:53;;;;;;;21.88;3.55;;;;;;;8.02;100.00;99565.53;6090824;23;20026;-91
2023/12/29 06:42:19;;;;;;;15.20;2.22;;;;;;;7.98;100.00;99559.75;6092425;23;19998;-90
2023/12/29 06:44:44;;;;;;;20.08;1.55;;;;;;;8.01;100.00;99559.56;6090494;23;20002;-90
2023/12/29 06:47:11;;;;;;;13.50;2.20;;;;;;;8.00;100.00;99568.22;6091995;23;20042;-91
2023/12/29 06:49:36;;;;;;;19.92;2.45;;;;;;;8.05;100.00;99563.59;6090571;23;20033;-90
2023/12/29 06:52:02;;;;;;;11.98;2.00;;;;;;;8.10;100.00;99559.00;6092025;23;20003;-91
2023/12/29 06:54:27;;;;;;;20.27;2.72;;;;;;;8.01;100.00;99559.56;6090596;23;20101;-91
2023/12/29 06:56:53;;;;;;;17.67;2.05;;;;;;;8.02;100.00;99560.38;6092103;23;20002;-91
2023/12/29 06:59:19;;;;;;;19.73;2.55;;;;;;;8.02;100.00;99571.50;6092288;23;20425;-91
2023/12/29 07:01:45;;;;;;;15.65;2.22;;;;;;;8.02;100.00;99566.38;6091926;23;20007;-90
2023/12/29 07:04:11;;;;;;;15.93;2.70;;;;;;;7.95;100.00;99567.66;6092139;23;20330;-91
2023/12/29 07:06:36;;;;;;;19.08;2.83;;;;;;;7.96;100.00;99573.63;6092061;23;20093;-91
2023/12/29 07:09:02;;;;;;;12.60;1.95;;;;;;;7.99;100.00;99571.69;6092152;23;20003;-91
2023/12/29 07:11:28;;;;;;;18.05;1.90;;;;;;;8.01;100.00;99574.97;6092045;23;20448;-88
2023/12/29 07:13:54;;;;;;;18.27;3.75;;;;;;;7.90;100.00;99572.22;6092318;23;20065;-92
2023/12/29 07:16:20;;;;;;;15.73;2.45;;;;;;;8.01;100.00;99574.97;6092046;23;20506;-91
2023/12/29 07:18:46;;;;;;;19.90;2.88;;;;;;;7.97;100.00;99576.06;6090716;23;20013;-91
2023/12/29 07:21:12;;;;;;;14.52;1.98;;;;;;;8.00;100.00;99578.47;6092268;23;20333;-91
2023/12/29 07:23:38;;;;;;;19.38;2.03;;;;;;;7.91;100.00;99563.63;6091883;23;20078;-91
2023/12/29 07:26:03;;;;;;;15.25;1.77;;;;;;;7.84;100.00;99577.75;6091997;23;20057;-91
2023/12/29 07:28:28;;;;;;;13.45;1.65;;;;;;;7.84;100.00;99578.56;6090622;23;20426;-91
2023/12/29 07:30:54;;;;;;;6.32;1.10;;;;;;;7.79;100.00;99575.44;6091994;23;20365;-91
2023/12/29 07:33:19;;;;;;;7.45;0.90;;;;;;;7.76;100.00;99582.53;6090563;23;20014;-91
2023/12/29 07:35:45;;;;;;;14.60;1.50;;;;;;;7.74;100.00;99582.59;6090346;23;20065;-91
2023/12/29 07:38:10;;;;;;;15.23;1.52;;;;;;;7.85;100.00;99577.66;6090639;23;20097;-91
2023/12/29 07:40:36;;;;;;;8.02;1.00;;;;;;;7.76;100.00;99574.81;6092176;23;20329;-91
2023/12/29 07:43:01;;;;;;;13.77;1.55;;;;;;;7.76;100.00;99572.25;6092020;23;20017;-91
2023/12/29 07:45:26;;;;;;;12.82;2.38;;;;;;;7.74;100.00;99561.25;6091879;23;20432;-91
2023/12/29 07:47:52;;;;;;;17.42;2.28;;;;;;;7.77;100.00;99579.84;6092106;23;20010;-91
2023/12/29 07:50:17;;;;;;;8.57;2.05;;;;;;;7.75;100.00;99562.88;6092094;23;20030;-91
2023/12/29 07:52:44;;;;;;;14.95;2.15;;;;;;;7.78;100.00;99571.25;6092065;23;20010;-92
2023/12/29 07:55:09;;;;;;;8.45;1.40;;;;;;;7.72;100.00;99574.97;6091813;23;20325;-91
2023/12/29 07:57:35;;;;;;;14.27;1.58;;;;;;;7.72;100.00;99580.13;6092208;23;20117;-91
2023/12/29 08:00:01;;;;;;;12.68;1.80;;;;;;;7.76;100.00;99585.91;6091895;23;20006;-91
2023/12/29 08:02:27;;;;;;;14.98;3.20;;;;;;;7.78;100.00;99575.53;6092087;23;20052;-91
2023/12/29 08:04:54;;;;;;;14.10;1.85;;;;;;;7.74;100.00;99571.50;6092017;23;20011;-91
2023/12/29 08:07:19;;;;;;;11.13;2.15;;;;;;;7.77;100.00;99581.59;6091895;23;20003;-91
2023/12/29 08:09:45;;;;;;;15.00;1.55;;;;;;;7.82;100.00;99587.28;6090580;23;20005;-91
2023/12/29 08:12:10;;;;;;;7.00;1.08;;;;;;;7.82;100.00;99589.84;6091556;23;20049;-91
2023/12/29 08:14:36;;;;;;;14.35;1.70;;;;;;;7.81;100.00;99593.34;6090276;23;20444;-91
2023/12/29 08:17:01;;;;;;;12.05;1.73;;;;;;;7.80;100.00;99596.81;6091823;23;20349;-91
2023/12/29 08:19:27;;;;;;;9.48;1.27;;;;;;;7.77;100.00;99587.56;6092144;23;19998;-92
2023/12/29 08:21:52;;;;;;;10.82;1.25;;;;;;;7.81;100.00;99580.50;6092007;23;20400;-91
2023/12/29 08:24:19;;;;;;;14.70;1.77;;;;;;;7.83;100.00;99570.97;6091798;23;20008;-91
2023/12/29 08:26:46;;;;;;;8.77;1.23;;;;;;;7.74;100.00;99585.19;6092043;23;20034;-91
2023/12/29 08:29:12;;;;;;;9.57;1.45;;;;;;;7.78;100.00;99572.97;6091875;23;20082;-91
2023/12/29 08:31:38;;;;;;;11.90;1.35;;;;;;;7.81;100.00;99572.81;6091945;23;20333;-91
2023/12/29 08:34:03;;;;;;;16.88;1.58;;;;;;;7.74;100.00;99568.94;6091746;23;20427;-90
2023/12/29 08:36:28;;;;;;;10.43;1.35;;;;;;;7.67;100.00;99571.03;6091662;23;20006;-91
2023/12/29 08:38:54;;;;;;;9.10;1.58;;;;;;;7.68;100.00;99568.41;6090662;23;20034;-91
2023/12/29 08:41:19;;;;;;;11.07;1.63;;;;;;;7.64;100.00;99569.47;6091677;23;20014;-90
2023/12/29 08:43:44;;;;;;;15.07;1.77;;;;;;;7.64;100.00;99572.06;6091688;23;20002;-91
2023/12/29 08:46:10;;;;;;;9.18;1.40;;;;;;;7.79;100.00;99572.06;6091564;23;20013;-91
2023/12/29 08:48:35;;;;;;;7.55;0.90;;;;;;;7.78;100.00;99572.97;6091704;23;20010;-91
2023/12/29 08:51:01;;;;;;;13.25;1.23;;;;;;;7.70;100.00;99574.25;6091661;23;20003;-90
2023/12/29 08:53:26;;;;;;;12.15;1.48;;;;;;;7.72;100.00;99580.13;6091845;23;20012;-91
2023/12/29 08:55:52;;;;;;;6.13;1.08;;;;;;;7.66;100.00;99580.50;6091490;23;20006;-91
2023/12/29 08:58:17;;;;;;;6.15;1.15;;;;;;;7.74;100.00;99581.78;6091660;23;19999;-91
2023/12/29 09:00:43;;;;;;;5.97;0.85;;;;;;;7.68;100.00;99583.81;6090168;23;20007;-91
2023/12/29 09:03:08;;;;;;;7.10;0.90;;;;;;;7.69;100.00;99584.63;6091941;23;20018;-91
2023/12/29 09:05:34;;;;;;;4.25;0.70;;;;;;;7.64;100.00;99592.59;6091322;23;20005;-90
2023/12/29 09:07:59;;;;;;;2.65;0.45;;;;;;;7.62;100.00;99589.28;6090119;23;20006;-91
2023/12/29 09:10:25;;;;;;;4.72;0.90;;;;;;;7.68;100.00;99588.09;6091937;23;20002;-91
2023/12/29 09:12:50;;;;;;;5.57;0.93;;;;;;;7.63;100.00;99580.69;6091424;23;20489;-91
2023/12/29 09:15:16;;;;;;;6.38;0.75;;;;;;;7.66;100.00;99590.78;6089633;23;20006;-91
2023/12/29 09:17:41;;;;;;;5.65;1.13;;;;;;;7.62;100.00;99586.72;6091718;23;20019;-91
2023/12/29 09:20:08;;;;;;;5.22;0.40;;;;;;;7.63;100.00;99583.25;6091142;23;20056;-90
2023/12/29 09:22:34;;;;;;;5.30;0.95;;;;;;;7.56;100.00;99591.38;6091326;23;20007;-91
2023/12/29 09:24:59;;;;;;;2.28;0.30;;;;;;;7.56;100.00;99591.38;6090812;23;20333;-90
2023/12/29 09:27:25;;;;;;;4.57;0.68;;;;;;;7.59;100.00;99586.91;6091196;23;20479;-90
2023/12/29 09:29:50;;;;;;;6.25;0.70;;;;;;;7.61;100.00;99587.66;6089862;23;20418;-91
2023/12/29 09:32:16;;;;;;;8.68;0.70;;;;;;;7.60;100.00;99574.88;6091345;23;20013;-90
2023/12/29 09:34:42;;;;;;;1.55;0.50;;;;;;;7.64;100.00;99594.34;6091327;23;20410;-90
2023/12/29 09:37:07;;;;;;;7.55;0.50;;;;;;;7.66;100.00;99585.63;6091519;23;20426;-90
2023/12/29 09:39:33;;;;;;;4.75;0.70;;;;;;;7.74;100.00;99582.59;6091189;23;20006;-91
2023/12/29 09:42:00;;;;;;;5.05;0.40;;;;;;;7.75;100.00;99593.69;6091754;23;20002;-91
2023/12/29 09:44:28;;;;;;;0.70;0.15;;;;;;;7.74;100.00;99590.31;6089637;23;20014;-91
2023/12/29 09:46:54;;;;;;;1.95;0.55;;;;;;;7.68;100.00;99593.22;6089566;23;20331;-91
2023/12/29 09:49:20;;;;;;;3.20;0.30;;;;;;;7.73;100.00;99573.25;6089761;23;20041;-91
2023/12/29 09:51:50;;;;;;;0.90;0.10;;;;;;;7.76;100.00;99577.38;6091324;23;19999;-91
2023/12/29 09:54:15;;;;;;;1.33;0.20;;;;;;;7.78;100.00;99575.53;6089310;23;20413;-91
2023/12/29 09:56:41;;;;;;;1.45;0.13;;;;;;;7.82;100.00;99564.97;6091251;23;20002;-91
2023/12/29 09:59:11;;;;;;;1.27;0.20;;;;;;;7.82;100.00;99569.31;6091111;23;20049;-91
2023/12/29 10:01:38;;;;;;;1.40;0.20;;;;;;;7.82;100.00;99569.31;6090998;23;20078;-91
2023/12/29 10:04:04;;;;;;;2.72;0.28;;;;;;;7.85;100.00;99564.81;6091126;23;20009;-90
2023/12/29 10:06:32;;;;;;;2.00;0.30;;;;;;;8.01;100.00;99574.16;6091065;23;20029;-91
2023/12/29 10:08:59;;;;;;;1.98;0.43;;;;;;;8.00;100.00;99563.06;6089609;23;20483;-90
2023/12/29 10:11:26;;;;;;;5.00;0.95;;;;;;;7.96;100.00;99566.72;6091079;23;20448;-92
2023/12/29 10:13:55;;;;;;;4.28;0.70;;;;;;;7.89;100.00;99560.31;6091226;23;20018;-90
2023/12/29 10:16:41;;;;;;;3.47;0.70;;;;;;;7.89;100.00;99570.59;6090445;23;20007;-90
2023/12/29 10:19:30;;;;;;;5.47;1.48;;;;;;;7.89;100.00;99571.41;6091254;23;20042;-91
2023/12/29 10:22:03;;;;;;;5.25;0.77;;;;;;;8.02;100.00;99570.66;6089509;23;20003;-91
2023/12/29 10:24:29;;;;;;;3.58;0.68;;;;;;;7.99;100.00;99565.72;6090932;23;20034;-91
2023/12/29 10:26:55;;;;;;;6.68;1.42;;;;;;;8.11;100.00;99560.66;6090856;23;20060;-91
2023/12/29 10:29:21;;;;;;;6.82;0.80;;;;;;;8.21;100.00;99565.22;6090864;23;20002;-91
2023/12/29 10:31:46;;;;;;;2.67;0.60;;;;;;;8.23;100.00;99568.53;6089214;23;20005;-91
2023/12/29 10:34:19;;;;;;;5.95;0.75;;;;;;;8.25;100.00;99587.28;6090639;23;20006;-91
2023/12/29 10:36:49;;;;;;;3.58;0.93;;;;;;;8.24;100.00;99583.03;6089905;23;20306;-91
2023/12/29 10:39:15;;;;;;;7.78;0.75;;;;;;;8.31;100.00;99586.88;6092409;23;20081;-91
2023/12/29 10:41:41;;;;;;;9.85;1.10;;;;;;;8.55;100.00;99590.53;6092476;23;20087;-91
2023/12/29 10:44:07;;;;;;;5.95;0.73;;;;;;;8.65;100.00;99582.22;6091929;23;20009;-90
2023/12/29 10:46:33;;;;;;;4.28;0.93;;;;;;;9.16;100.00;99587.53;6091918;23;20002;-90
2023/12/29 10:49:09;;;;;;;5.57;0.80;;;;;;;9.83;100.00;99575.31;6090327;23;20064;-91
2023/12/29 10:51:35;;;;;;;7.00;1.10;;;;;;;10.92;100.00;99587.50;6092211;23;20013;-91
2023/12/29 10:54:00;;;;;;;6.07;0.80;;;;;;;12.94;100.00;99583.28;6090427;23;20085;-91
2023/12/29 10:56:26;;;;;;;6.60;0.95;;;;;;;13.24;100.00;99585.13;6091751;23;20434;-91
2023/12/29 10:59:02;;;;;;;5.28;1.00;;;;;;;13.93;100.00;99594.97;6090206;23;20064;-92
2023/12/29 11:01:29;;;;;;;3.08;0.52;;;;;;;14.15;100.00;99606.13;6092093;23;20011;-92
2023/12/29 11:04:05;;;;;;;4.07;0.70;;;;;;;15.46;95.57;99608.44;6092142;23;20007;-91
2023/12/29 11:06:43;;;;;;;6.18;0.90;;;;;;;13.66;100.00;99621.47;6091952;23;20372;-91
2023/12/29 11:09:11;;;;;;;4.88;0.50;;;;;;;12.63;100.00;99624.56;6091848;23;20006;-92
2023/12/29 11:11:37;;;;;;;3.72;0.70;;;;;;;11.73;100.00;99616.84;6092367;23;20014;-91
2023/12/29 11:14:03;;;;;;;3.83;0.80;;;;;;;11.29;100.00;99618.38;6092042;23;20006;-92
2023/12/29 11:16:31;;;;;;;1.85;0.52;;;;;;;10.90;100.00;99612.63;6091625;23;20041;-91
2023/12/29 11:18:58;;;;;;;4.57;1.00;;;;;;;10.58;100.00;99617.47;6091719;23;20504;-91
2023/12/29 11:21:26;;;;;;;3.72;0.47;;;;;;;10.46;100.00;99617.44;6091823;23;20074;-91